Time;durP1;ratioP1;P1;durP2;ratioP2;P2;SDS_P1;SDS_P2;PMS_P1;PMS_P2;Temp;Humidity;BMP_temperature;BMP_pressure;BME280_temperature;BME280_humidity;BME280_pressure;Samples;Min_cycle;Max_cycle;Signal;HPM_P1;HPM_P2
2023/06/08 00:02:13;;;;;;;18.33;14.05;;;;;;;17.49;87.47;101148.28;4979918;28;20053;-67
2023/06/08 00:04:40;;;;;;;17.92;15.57;;;;;;;17.45;87.87;101145.81;4979156;28;20741;-67
2023/06/08 00:07:09;;;;;;;21.45;15.20;;;;;;;17.40;87.95;101144.19;4980328;28;20042;-67
2023/06/08 00:09:37;;;;;;;18.10;16.20;;;;;;;17.34;88.40;101148.72;4978980;28;20095;-67
2023/06/08 00:12:04;;;;;;;21.67;16.90;;;;;;;17.29;88.62;101148.03;4982220;28;20038;-67
2023/06/08 00:14:30;;;;;;;19.48;16.23;;;;;;;17.24;88.75;101139.47;4981105;28;20050;-67
2023/06/08 00:16:57;;;;;;;20.02;17.15;;;;;;;17.18;89.20;101150.09;4980345;28;20042;-67
2023/06/08 00:19:23;;;;;;;21.90;17.17;;;;;;;17.14;89.64;101145.84;4975218;28;20038;-67
2023/06/08 00:21:49;;;;;;;18.85;16.38;;;;;;;17.08;89.90;101146.91;4981480;28;20041;-67
2023/06/08 00:24:19;;;;;;;19.15;16.38;;;;;;;17.03;90.08;101146.19;4982680;28;20035;-67
2023/06/08 00:26:45;;;;;;;21.90;16.08;;;;;;;16.99;90.09;101146.28;4984004;28;20040;-67
2023/06/08 00:29:10;;;;;;;15.93;13.18;;;;;;;16.93;90.34;101147.31;4978963;28;20033;-67
2023/06/08 00:31:36;;;;;;;19.50;15.70;;;;;;;16.88;90.52;101145.75;4979674;28;20038;-67
2023/06/08 00:34:02;;;;;;;22.08;16.50;;;;;;;16.83;90.67;101140.63;4979331;28;20734;-67
2023/06/08 00:36:27;;;;;;;19.77;16.65;;;;;;;16.78;91.35;101147.75;4978879;28;20518;-67
2023/06/08 00:38:52;;;;;;;20.27;17.25;;;;;;;16.71;91.79;101144.41;4977867;28;20042;-67
2023/06/08 00:41:18;;;;;;;22.40;16.67;;;;;;;16.66;91.68;101137.63;4980098;28;20456;-67
2023/06/08 00:43:45;;;;;;;20.83;15.65;;;;;;;16.61;92.08;101144.72;5009272;28;20812;-67
2023/06/08 00:46:12;;;;;;;19.33;14.75;;;;;;;16.56;92.34;101141.38;4977263;28;20041;-67
2023/06/08 00:48:38;;;;;;;18.48;15.10;;;;;;;16.52;92.55;101137.13;4977366;28;20406;-67
2023/06/08 00:51:04;;;;;;;19.35;14.45;;;;;;;16.48;92.42;101138.97;4980968;28;20049;-67
2023/06/08 00:53:32;;;;;;;18.98;16.60;;;;;;;16.45;92.68;101136.44;4976683;28;20050;-67
2023/06/08 00:55:57;;;;;;;23.13;17.60;;;;;;;16.42;92.63;101136.53;4983723;28;20049;-67
2023/06/08 00:58:24;;;;;;;19.73;15.38;;;;;;;16.41;92.87;101133.97;4980693;28;20050;-67
2023/06/08 01:00:50;;;;;;;18.75;16.15;;;;;;;16.38;93.37;101128.81;4976727;28;20034;-68
2023/06/08 01:03:15;;;;;;;18.60;16.60;;;;;;;16.35;93.36;101135.00;4975587;28;20039;-67
2023/06/08 01:05:44;;;;;;;17.85;14.13;;;;;;;16.32;93.92;101128.06;4977120;28;20038;-67
2023/06/08 01:08:24;;;;;;;17.63;15.43;;;;;;;16.30;93.90;101123.78;4976027;28;20100;-67
2023/06/08 01:11:11;;;;;;;21.92;18.08;;;;;;;16.28;94.94;101126.47;4978475;28;20073;-67
2023/06/08 01:13:47;;;;;;;24.75;18.90;;;;;;;16.26;95.28;101130.88;4984610;28;20038;-67
2023/06/08 01:16:17;;;;;;;22.00;18.20;;;;;;;16.25;95.24;101123.06;4977600;28;20034;-67
2023/06/08 01:18:44;;;;;;;26.17;19.55;;;;;;;16.25;95.78;101125.69;4978161;28;20042;-67
2023/06/08 01:21:52;;;;;;;19.52;17.52;;;;;;;16.23;96.16;101125.72;4984158;28;20038;-67
2023/06/08 01:24:20;;;;;;;25.35;18.80;;;;;;;16.21;96.21;101116.22;4979736;28;20046;-67
2023/06/08 01:26:52;;;;;;;25.95;21.75;;;;;;;16.20;96.85;101115.38;4981018;28;20171;-67
2023/06/08 01:29:25;;;;;;;20.67;18.58;;;;;;;16.19;97.18;101111.03;4977908;28;20046;-67
2023/06/08 01:31:50;;;;;;;21.83;17.92;;;;;;;16.19;97.11;101113.66;4974783;28;20089;-67
2023/06/08 01:34:16;;;;;;;21.85;18.92;;;;;;;16.19;97.64;101113.66;4979220;28;20607;-67
2023/06/08 01:36:56;;;;;;;27.17;24.27;;;;;;;16.17;97.98;101109.38;4977417;28;20096;-67
2023/06/08 01:39:25;;;;;;;30.50;22.80;;;;;;;16.12;98.14;101113.84;4979190;28;20045;-67
2023/06/08 01:41:55;;;;;;;29.85;24.88;;;;;;;16.10;98.75;101113.88;4978353;28;20049;-67
2023/06/08 01:44:21;;;;;;;31.38;23.10;;;;;;;16.05;98.48;101113.16;4979348;28;20052;-67
2023/06/08 01:46:59;;;;;;;27.85;23.60;;;;;;;15.98;98.36;101106.38;4975593;28;20144;-67
2023/06/08 01:49:27;;;;;;;31.92;23.92;;;;;;;15.96;99.24;101112.53;4979993;28;20037;-67
2023/06/08 01:51:53;;;;;;;31.27;25.38;;;;;;;15.90;99.61;101104.84;4974367;28;20034;-67
2023/06/08 01:54:21;;;;;;;29.52;24.38;;;;;;;15.81;99.67;101102.47;4978401;28;20042;-67
2023/06/08 01:56:46;;;;;;;29.55;23.52;;;;;;;15.70;99.59;101105.34;4978518;28;20769;-67
2023/06/08 01:59:12;;;;;;;29.50;24.02;;;;;;;15.59;100.00;101110.75;4973211;28;20146;-67
2023/06/08 02:01:37;;;;;;;29.08;24.10;;;;;;;15.51;99.51;101114.44;4977101;28;20502;-67
2023/06/08 02:04:03;;;;;;;24.27;20.70;;;;;;;15.44;99.53;101105.03;4980737;28;20543;-67
2023/06/08 02:06:28;;;;;;;33.45;23.05;;;;;;;15.38;100.00;101113.84;4980786;28;20042;-67
2023/06/08 02:08:54;;;;;;;27.83;23.80;;;;;;;15.40;100.00;101109.50;4982927;28;20042;-67
2023/06/08 02:11:22;;;;;;;31.55;25.33;;;;;;;15.40;100.00;101109.50;4979367;28;20096;-67
2023/06/08 02:13:48;;;;;;;27.23;24.05;;;;;;;15.40;100.00;101106.88;4983801;28;20487;-67
2023/06/08 02:16:13;;;;;;;38.33;24.27;;;;;;;15.40;100.00;101106.88;4980464;28;20034;-67
2023/06/08 02:18:41;;;;;;;26.63;21.40;;;;;;;15.39;100.00;101107.75;4977218;28;20062;-67
2023/06/08 02:21:08;;;;;;;28.77;23.75;;;;;;;15.40;100.00;101111.22;4980140;28;20550;-67
2023/06/08 02:23:33;;;;;;;30.77;23.50;;;;;;;15.38;100.00;101100.84;4980693;28;20038;-68
2023/06/08 02:25:58;;;;;;;26.20;20.65;;;;;;;15.39;100.00;101105.16;4983731;28;20093;-67
2023/06/08 02:28:24;;;;;;;33.85;24.45;;;;;;;15.39;100.00;101105.16;4981945;28;20042;-67
2023/06/08 02:30:49;;;;;;;25.40;22.23;;;;;;;15.38;100.00;101097.38;4980792;28;20065;-67
2023/06/08 02:33:15;;;;;;;27.38;21.55;;;;;;;15.36;100.00;101104.38;4978134;28;20141;-67
2023/06/08 02:35:40;;;;;;;25.70;21.23;;;;;;;15.33;100.00;101104.44;4983653;28;20038;-67
2023/06/08 02:38:06;;;;;;;25.05;20.52;;;;;;;15.31;100.00;101101.00;4979838;28;20040;-67
2023/06/08 02:40:31;;;;;;;24.00;20.60;;;;;;;15.29;100.00;101106.25;4984009;28;20042;-68
2023/06/08 02:42:57;;;;;;;25.25;19.77;;;;;;;15.30;100.00;101105.38;4986035;28;20113;-67
2023/06/08 02:45:23;;;;;;;28.17;20.25;;;;;;;15.29;100.00;101106.25;4981283;28;20640;-67
2023/06/08 02:47:49;;;;;;;20.48;18.23;;;;;;;15.30;100.00;101102.75;4983485;28;20030;-67
2023/06/08 02:50:14;;;;;;;24.33;18.88;;;;;;;15.29;100.00;101105.38;4981196;28;20063;-67
2023/06/08 02:52:40;;;;;;;21.63;17.88;;;;;;;15.25;100.00;101103.75;4984444;28;20026;-67
2023/06/08 02:55:07;;;;;;;23.45;19.00;;;;;;;15.23;100.00;101100.34;4979629;28;20675;-67
2023/06/08 02:57:33;;;;;;;28.48;22.75;;;;;;;15.20;100.00;101104.69;4980355;28;20085;-67
2023/06/08 02:59:59;;;;;;;25.70;21.45;;;;;;;15.21;100.00;101102.97;4987360;28;20046;-67
2023/06/08 03:02:27;;;;;;;24.27;19.83;;;;;;;15.19;100.00;101092.59;4981126;28;20044;-67
2023/06/08 03:04:53;;;;;;;27.30;21.85;;;;;;;15.20;100.00;101101.22;4981410;28;20121;-67
2023/06/08 03:07:19;;;;;;;26.20;22.40;;;;;;;15.17;100.00;101099.56;4978382;28;20042;-67
2023/06/08 03:09:44;;;;;;;23.55;20.20;;;;;;;15.14;100.00;101104.84;4980744;28;20145;-67
2023/06/08 03:12:12;;;;;;;24.05;21.52;;;;;;;15.12;100.00;101098.81;4979151;28;20038;-67
2023/06/08 03:14:38;;;;;;;24.15;20.38;;;;;;;15.10;100.00;101111.03;4976252;28;20042;-67
2023/06/08 03:17:04;;;;;;;22.65;19.05;;;;;;;15.08;100.00;101110.16;4980240;28;20531;-67
2023/06/08 03:19:30;;;;;;;20.50;17.80;;;;;;;15.08;100.00;101109.31;4979081;28;20101;-67
2023/06/08 03:22:02;;;;;;;22.60;18.10;;;;;;;15.07;100.00;101095.47;4985580;28;20030;-67
2023/06/08 03:24:28;;;;;;;22.35;17.95;;;;;;;15.10;100.00;101104.94;4981315;28;20043;-67
2023/06/08 03:26:55;;;;;;;19.52;17.42;;;;;;;15.11;100.00;101098.81;4981117;28;20054;-67
2023/06/08 03:29:21;;;;;;;19.38;17.23;;;;;;;15.15;100.00;101103.94;4980131;28;20066;-67
2023/06/08 03:31:47;;;;;;;23.13;17.75;;;;;;;15.16;100.00;101095.25;4979917;28;20154;-67
2023/06/08 03:34:12;;;;;;;21.15;18.40;;;;;;;15.18;100.00;101103.03;4981911;28;20042;-67
2023/06/08 03:36:38;;;;;;;21.98;18.45;;;;;;;15.19;100.00;101097.81;4985499;28;20061;-67
2023/06/08 03:39:04;;;;;;;20.95;18.25;;;;;;;15.21;100.00;101101.22;4979973;28;20662;-67
2023/06/08 03:41:30;;;;;;;21.63;19.05;;;;;;;15.22;100.00;101096.88;4986539;28;20558;-67
2023/06/08 03:43:56;;;;;;;20.05;17.95;;;;;;;15.26;100.00;101092.44;4980904;28;20054;-67
2023/06/08 03:46:22;;;;;;;22.17;19.73;;;;;;;15.27;100.00;101095.00;4979400;28;20034;-63
2023/06/08 03:48:48;;;;;;;22.13;18.38;;;;;;;15.31;100.00;101096.66;4977645;28;20041;-63
2023/06/08 03:51:14;;;;;;;21.05;18.63;;;;;;;15.35;100.00;101097.44;4979015;28;20832;-62
2023/06/08 03:53:39;;;;;;;24.15;18.98;;;;;;;15.38;100.00;101090.41;4978799;28;20069;-63
2023/06/08 03:56:05;;;;;;;19.77;17.65;;;;;;;15.42;100.00;101093.81;4978247;28;20129;-62
2023/06/08 03:58:32;;;;;;;17.85;16.05;;;;;;;15.46;100.00;101100.66;4977060;28;20136;-63
2023/06/08 04:00:58;;;;;;;22.98;17.75;;;;;;;15.49;100.00;101096.25;4974112;28;20030;-63
2023/06/08 04:03:25;;;;;;;19.35;16.85;;;;;;;15.54;99.94;101097.00;4981162;28;20035;-63
2023/06/08 04:05:51;;;;;;;21.92;18.05;;;;;;;15.58;99.68;101098.63;4984791;28;20148;-63
2023/06/08 04:08:17;;;;;;;18.85;16.85;;;;;;;15.63;99.20;101096.81;4977889;28;20539;-62
2023/06/08 04:10:43;;;;;;;20.52;17.70;;;;;;;15.69;99.25;101096.66;4979878;28;20042;-63
2023/06/08 04:13:08;;;;;;;20.17;18.00;;;;;;;15.76;99.17;101095.59;4979956;28;20085;-64
2023/06/08 04:15:33;;;;;;;23.13;19.77;;;;;;;15.84;98.69;101098.03;4981759;28;20033;-63
2023/06/08 04:18:01;;;;;;;24.23;19.73;;;;;;;15.90;98.43;101097.88;4976904;28;20612;-63
2023/06/08 04:20:27;;;;;;;25.15;20.23;;;;;;;15.98;98.32;101095.06;4979860;28;20065;-63
2023/06/08 04:22:53;;;;;;;26.92;22.75;;;;;;;16.02;98.33;101092.38;4981475;28;20165;-63
2023/06/08 04:25:19;;;;;;;27.90;22.10;;;;;;;16.09;97.66;101093.03;4981746;28;20057;-63
2023/06/08 04:27:46;;;;;;;22.88;20.45;;;;;;;16.15;97.72;101085.94;4979379;28;20030;-63
2023/06/08 04:30:12;;;;;;;25.70;22.52;;;;;;;16.22;97.36;101091.84;4978656;28;20092;-63
2023/06/08 04:32:37;;;;;;;24.48;21.83;;;;;;;16.28;97.17;101086.47;4973759;28;20035;-63
2023/06/08 04:35:03;;;;;;;33.03;24.85;;;;;;;16.31;96.36;101089.00;4976351;28;20045;-64
2023/06/08 04:37:29;;;;;;;27.98;23.38;;;;;;;16.37;96.47;101088.84;4978224;28;20049;-63
2023/06/08 04:39:56;;;;;;;30.88;24.27;;;;;;;16.37;95.44;101086.22;4976159;28;20031;-63
2023/06/08 04:42:23;;;;;;;30.05;23.55;;;;;;;16.42;95.20;101092.16;4975319;28;20105;-63
2023/06/08 04:44:50;;;;;;;28.55;25.08;;;;;;;16.43;94.50;101087.81;4976178;28;20041;-62
2023/06/08 04:47:16;;;;;;;29.70;24.65;;;;;;;16.48;94.90;101086.78;4979029;28;20710;-62
2023/06/08 04:49:42;;;;;;;29.42;24.17;;;;;;;16.55;94.19;101087.47;4975310;28;20041;-63
2023/06/08 04:52:09;;;;;;;28.33;24.70;;;;;;;16.60;93.47;101098.63;4979859;28;20030;-62
2023/06/08 04:54:36;;;;;;;27.85;23.30;;;;;;;16.62;93.54;101091.63;4978809;28;20419;-63
2023/06/08 04:57:03;;;;;;;29.05;23.08;;;;;;;16.67;92.96;101101.03;4977719;28;20117;-63
2023/06/08 04:59:29;;;;;;;29.25;22.20;;;;;;;16.73;93.31;101087.81;4977624;28;20647;-63
2023/06/08 05:01:55;;;;;;;28.10;22.80;;;;;;;16.78;92.71;101095.53;4975468;28;20034;-63
2023/06/08 05:04:20;;;;;;;25.50;21.50;;;;;;;16.83;92.65;101091.91;4978522;28;20112;-63
2023/06/08 05:06:46;;;;;;;30.48;24.17;;;;;;;16.84;91.82;101097.97;4978158;28;20022;-63
2023/06/08 05:09:12;;;;;;;27.45;22.77;;;;;;;16.89;91.86;101093.47;4976679;28;20811;-63
2023/06/08 05:11:38;;;;;;;26.85;22.60;;;;;;;16.86;92.09;101090.94;4976772;28;20511;-63
2023/06/08 05:14:03;;;;;;;28.17;23.50;;;;;;;16.92;91.85;101093.38;4982989;28;20149;-63
2023/06/08 05:16:29;;;;;;;26.05;22.85;;;;;;;17.02;91.74;101097.44;4982841;28;20528;-63
2023/06/08 05:18:54;;;;;;;26.70;23.77;;;;;;;17.13;91.50;101097.13;4973783;28;20793;-64
2023/06/08 05:21:19;;;;;;;28.02;23.27;;;;;;;17.21;91.39;101093.41;4981261;28;20045;-63
2023/06/08 05:23:45;;;;;;;30.70;25.27;;;;;;;17.27;90.56;101097.59;4978282;28;20042;-63
2023/06/08 05:26:10;;;;;;;28.75;24.13;;;;;;;17.35;90.00;101106.03;4976180;28;20418;-63
2023/06/08 05:28:36;;;;;;;27.83;24.10;;;;;;;17.39;89.88;101105.03;4978805;28;20050;-63
2023/06/08 05:31:02;;;;;;;29.40;24.65;;;;;;;17.46;89.59;101101.31;4975553;28;20034;-63
2023/06/08 05:33:27;;;;;;;33.70;25.42;;;;;;;17.53;89.25;101102.00;4994928;28;20061;-63
2023/06/08 05:35:52;;;;;;;33.45;24.70;;;;;;;17.61;89.01;101107.81;4975589;28;20042;-63
2023/06/08 05:38:19;;;;;;;25.27;22.05;;;;;;;17.73;88.72;101099.59;4978767;28;20411;-63
2023/06/08 05:40:45;;;;;;;23.45;20.90;;;;;;;17.78;88.52;101098.53;4979726;28;20491;-63
2023/06/08 05:43:10;;;;;;;29.05;23.55;;;;;;;17.87;88.10;101094.78;4988738;28;20033;-64
2023/06/08 05:45:36;;;;;;;21.70;19.35;;;;;;;17.98;87.85;101087.47;4983234;28;20032;-63
2023/06/08 05:48:01;;;;;;;24.75;20.88;;;;;;;18.06;86.95;101082.81;4986980;28;20157;-63
2023/06/08 05:50:26;;;;;;;25.73;20.60;;;;;;;18.16;86.28;101083.38;4980895;28;20538;-63
2023/06/08 05:52:52;;;;;;;24.65;20.48;;;;;;;18.22;86.16;101086.63;4986754;28;20034;-63
2023/06/08 05:55:17;;;;;;;23.92;19.33;;;;;;;18.32;85.80;101081.91;4979063;28;20098;-63
2023/06/08 05:57:42;;;;;;;28.08;22.33;;;;;;;18.36;84.64;101079.16;4980966;28;20042;-63
2023/06/08 06:00:12;;;;;;;25.92;20.90;;;;;;;18.45;84.38;101080.56;4977399;28;20046;-63
2023/06/08 06:02:38;;;;;;;23.35;19.90;;;;;;;18.53;84.81;101087.25;4972572;28;20041;-63
2023/06/08 06:05:04;;;;;;;21.63;19.33;;;;;;;18.59;83.92;101086.16;4977554;28;20074;-64
2023/06/08 06:07:30;;;;;;;22.55;18.73;;;;;;;18.67;84.16;101085.91;4976563;28;20507;-64
2023/06/08 06:09:55;;;;;;;22.83;20.20;;;;;;;18.69;83.76;101092.78;4972373;28;20031;-63
2023/06/08 06:12:21;;;;;;;25.10;20.70;;;;;;;18.73;83.48;101085.69;4970226;28;20045;-64
2023/06/08 06:14:48;;;;;;;29.60;21.08;;;;;;;18.77;83.37;101089.88;4971748;28;20049;-63
2023/06/08 06:17:15;;;;;;;25.33;21.80;;;;;;;18.84;83.01;101080.91;4969406;28;20050;-63
2023/06/08 06:19:41;;;;;;;20.63;18.13;;;;;;;18.87;82.78;101080.81;4972141;28;20042;-64
2023/06/08 06:22:09;;;;;;;27.25;20.38;;;;;;;18.95;82.43;101078.75;4981848;28;20069;-64
2023/06/08 06:24:36;;;;;;;24.13;21.55;;;;;;;19.00;82.17;101075.03;4971967;28;20485;-63
2023/06/08 06:27:03;;;;;;;20.95;18.63;;;;;;;19.11;81.67;101076.41;5008636;28;20050;-63
2023/06/08 06:29:29;;;;;;;19.35;14.57;;;;;;;19.19;80.23;101069.97;4980807;28;20030;-63
2023/06/08 06:31:54;;;;;;;15.98;12.65;;;;;;;19.25;76.84;101059.22;4978372;28;20527;-67
2023/06/08 06:34:20;;;;;;;16.15;11.85;;;;;;;19.30;76.00;101059.03;4983256;28;20061;-66
2023/06/08 06:36:46;;;;;;;13.30;11.68;;;;;;;19.30;75.48;101059.03;4982188;28;20648;-67
2023/06/08 06:39:12;;;;;;;16.02;12.27;;;;;;;19.39;74.30;101048.19;4981799;28;20054;-67
2023/06/08 06:41:38;;;;;;;13.82;12.00;;;;;;;19.45;75.06;101056.66;4980544;28;20499;-67
2023/06/08 06:44:03;;;;;;;13.68;12.18;;;;;;;19.59;74.70;101062.19;4976822;28;20086;-67
2023/06/08 06:46:29;;;;;;;16.05;12.13;;;;;;;19.59;73.65;101064.81;4978983;28;20038;-66
2023/06/08 06:48:55;;;;;;;19.60;12.15;;;;;;;19.66;74.19;101069.81;4956800;28;20035;-67
2023/06/08 06:51:20;;;;;;;14.35;12.02;;;;;;;19.71;73.91;101070.50;4960932;28;20046;-67
2023/06/08 06:53:46;;;;;;;14.30;12.30;;;;;;;19.71;73.29;101073.97;4962189;28;20041;-67
2023/06/08 06:56:13;;;;;;;15.13;12.38;;;;;;;19.77;73.58;101078.94;4960980;28;20039;-68
2023/06/08 06:58:44;;;;;;;15.98;12.50;;;;;;;19.88;73.78;101075.94;4960604;28;20105;-67
2023/06/08 07:01:11;;;;;;;14.13;11.95;;;;;;;19.89;73.02;101072.41;4955188;28;20671;-66
2023/06/08 07:03:40;;;;;;;16.10;11.80;;;;;;;19.86;73.10;101072.53;4958319;28;20066;-67
2023/06/08 07:06:06;;;;;;;12.27;10.30;;;;;;;19.94;71.50;101065.19;4958353;28;20869;-67
2023/06/08 07:08:32;;;;;;;15.70;8.85;;;;;;;19.97;69.03;101034.44;4955763;28;20137;-63
2023/06/08 07:10:58;;;;;;;9.77;8.68;;;;;;;19.97;68.91;101042.31;4960879;28;20057;-63
2023/06/08 07:13:23;;;;;;;15.07;9.00;;;;;;;19.95;68.72;101040.63;4959474;28;20047;-63
2023/06/08 07:15:48;;;;;;;9.98;8.43;;;;;;;19.99;68.30;101044.84;4961368;28;20726;-63
2023/06/08 07:18:14;;;;;;;12.00;8.05;;;;;;;20.07;68.76;101043.59;4958142;28;20038;-63
2023/06/08 07:20:40;;;;;;;10.98;7.88;;;;;;;20.17;67.74;101026.53;4959377;28;20031;-62
2023/06/08 07:23:05;;;;;;;9.32;7.03;;;;;;;20.17;66.76;101021.28;4956660;28;20067;-62
2023/06/08 07:25:31;;;;;;;12.30;7.20;;;;;;;20.33;66.67;101021.47;4956119;28;20126;-63
2023/06/08 07:27:56;;;;;;;8.13;6.70;;;;;;;20.33;65.25;100999.63;4958943;28;20042;-63
2023/06/08 07:30:21;;;;;;;9.07;7.32;;;;;;;20.47;66.85;101033.97;4955766;28;20077;-62
2023/06/08 07:32:48;;;;;;;9.80;7.35;;;;;;;20.47;66.45;101026.97;4955861;28;20553;-62
2023/06/08 07:35:13;;;;;;;12.45;7.18;;;;;;;20.56;66.74;101036.19;4969090;28;20043;-62
2023/06/08 07:37:39;;;;;;;9.13;7.70;;;;;;;20.69;66.32;101032.09;4959956;28;20566;-67
2023/06/08 07:40:07;;;;;;;11.00;7.90;;;;;;;20.73;65.77;101023.16;4959098;28;20043;-65
2023/06/08 07:42:33;;;;;;;8.95;7.57;;;;;;;20.81;66.07;101026.28;4959788;28;20035;-66
2023/06/08 07:44:59;;;;;;;10.48;8.02;;;;;;;20.85;67.28;101058.53;4957021;28;20066;-66
2023/06/08 07:47:25;;;;;;;9.60;7.32;;;;;;;20.98;66.01;101036.03;5003075;28;20412;-67
2023/06/08 07:49:51;;;;;;;8.25;6.80;;;;;;;21.15;64.87;101017.69;4974686;28;20049;-67
2023/06/08 07:52:16;;;;;;;7.82;6.97;;;;;;;21.13;64.03;100998.50;4959619;28;20181;-67
2023/06/08 07:54:42;;;;;;;9.00;6.90;;;;;;;21.32;65.19;101030.00;4963192;28;20335;-66
2023/06/08 07:57:08;;;;;;;9.90;6.97;;;;;;;21.35;63.88;101006.19;4979923;28;20144;-67
2023/06/08 07:59:34;;;;;;;9.23;7.43;;;;;;;21.40;63.61;101001.56;4985579;28;20085;-67
2023/06/08 08:02:00;;;;;;;8.93;7.10;;;;;;;21.39;63.34;101007.75;4979790;28;20046;-67
2023/06/08 08:04:25;;;;;;;9.82;7.30;;;;;;;21.43;63.96;101012.81;4982597;28;20046;-68
2023/06/08 08:06:51;;;;;;;9.73;8.40;;;;;;;21.52;63.92;101011.50;4988053;28;20073;-67
2023/06/08 08:09:17;;;;;;;8.73;7.82;;;;;;;21.61;64.62;101024.22;4983095;28;20043;-66
2023/06/08 08:11:43;;;;;;;9.05;7.35;;;;;;;21.74;64.08;101010.38;4986843;28;20049;-67
2023/06/08 08:14:10;;;;;;;10.57;7.85;;;;;;;21.93;62.57;100991.00;4990905;28;20042;-66
2023/06/08 08:16:39;;;;;;;7.72;6.93;;;;;;;22.06;62.80;100987.66;4978109;28;20134;-67
2023/06/08 08:19:05;;;;;;;7.47;6.68;;;;;;;22.17;62.62;101000.28;4976324;28;20030;-66
2023/06/08 08:21:31;;;;;;;9.32;6.93;;;;;;;21.99;60.94;100970.50;4980224;28;20029;-62
2023/06/08 08:23:57;;;;;;;8.05;7.03;;;;;;;22.05;60.60;100961.41;4978717;28;20046;-62
2023/06/08 08:26:22;;;;;;;7.60;6.78;;;;;;;22.11;60.93;100969.84;4980310;28;20053;-63
2023/06/08 08:28:47;;;;;;;7.38;6.43;;;;;;;22.18;60.76;100965.09;4979073;28;20049;-63
2023/06/08 08:31:13;;;;;;;8.45;6.75;;;;;;;22.32;60.85;100965.22;4982962;28;20035;-63
2023/06/08 08:33:40;;;;;;;6.13;5.40;;;;;;;22.45;60.72;100962.78;4984465;28;20704;-63
2023/06/08 08:36:11;;;;;;;7.68;6.65;;;;;;;22.55;60.55;100966.66;4976145;28;20128;-63
2023/06/08 08:38:39;;;;;;;8.43;6.43;;;;;;;22.63;60.16;100951.25;4986124;28;20038;-63
2023/06/08 08:41:08;;;;;;;8.65;6.03;;;;;;;22.81;59.68;100942.34;4978846;28;20537;-63
2023/06/08 08:43:52;;;;;;;9.05;5.65;;;;;;;22.88;60.04;100949.81;4979607;28;20566;-64
2023/06/08 08:46:22;;;;;;;9.25;7.15;;;;;;;22.92;58.99;100933.84;4979251;28;20088;-63
2023/06/08 08:48:53;;;;;;;8.00;6.05;;;;;;;23.15;59.86;100954.47;4978215;28;20543;-62
2023/06/08 08:51:19;;;;;;;7.32;6.22;;;;;;;23.30;58.59;100922.78;4980453;28;20049;-64
2023/06/08 08:53:50;;;;;;;8.07;6.40;;;;;;;23.39;58.18;100919.63;4980373;28;20034;-63
2023/06/08 08:56:20;;;;;;;11.02;7.30;;;;;;;23.19;59.35;100946.31;4976004;28;20046;-64
2023/06/08 08:58:53;;;;;;;11.18;7.82;;;;;;;23.31;59.31;100942.09;4977969;28;20034;-64
2023/06/08 09:01:19;;;;;;;8.70;6.63;;;;;;;23.25;58.26;100927.50;4978775;28;20061;-63
2023/06/08 09:03:45;;;;;;;6.72;5.78;;;;;;;23.20;57.91;100916.38;4975185;28;20084;-64
2023/06/08 09:06:11;;;;;;;7.90;5.93;;;;;;;23.31;57.87;100921.00;4969434;28;20054;-64
2023/06/08 09:08:36;;;;;;;9.00;6.32;;;;;;;23.35;57.40;100914.63;4972886;28;20038;-63
2023/06/08 09:11:04;;;;;;;8.75;5.82;;;;;;;23.51;58.03;100933.06;4970727;28;20065;-64
2023/06/08 09:13:31;;;;;;;8.32;5.70;;;;;;;23.59;56.80;100913.19;4967714;28;20038;-63
2023/06/08 09:16:06;;;;;;;10.65;6.32;;;;;;;23.58;55.87;100902.69;4970109;28;20089;-63
2023/06/08 09:18:31;;;;;;;7.13;6.13;;;;;;;23.51;56.18;100909.31;4972368;28;20038;-63
2023/06/08 09:20:57;;;;;;;7.28;6.07;;;;;;;23.48;56.71;100920.03;4979765;28;20030;-63
2023/06/08 09:23:26;;;;;;;7.03;5.50;;;;;;;23.56;56.44;100908.09;4981348;28;20505;-63
2023/06/08 09:25:52;;;;;;;7.57;5.78;;;;;;;23.62;56.22;100907.72;4976467;28;20525;-62
2023/06/08 09:28:25;;;;;;;7.93;6.13;;;;;;;23.61;56.87;100918.34;4978477;28;20038;-64
2023/06/08 09:30:52;;;;;;;7.00;6.28;;;;;;;23.67;56.44;100907.44;4980632;28;20527;-64
2023/06/08 09:33:20;;;;;;;9.35;6.10;;;;;;;23.85;56.95;100914.22;4976466;28;20096;-64
2023/06/08 09:35:58;;;;;;;7.93;5.78;;;;;;;24.09;56.24;100907.50;4970202;28;20119;-63
2023/06/08 09:38:26;;;;;;;8.60;6.05;;;;;;;24.36;56.24;100905.78;4967157;28;20066;-64
2023/06/08 09:41:13;;;;;;;7.03;5.72;;;;;;;24.72;55.81;100901.75;4966562;28;20038;-64
2023/06/08 09:43:41;;;;;;;7.07;6.38;;;;;;;24.80;54.66;100878.28;4969402;28;20074;-64
2023/06/08 09:46:06;;;;;;;6.50;5.90;;;;;;;24.74;54.49;100878.69;4968110;28;20041;-64
2023/06/08 09:48:33;;;;;;;7.55;6.05;;;;;;;24.52;53.63;100874.75;4966713;28;20042;-63
2023/06/08 09:51:00;;;;;;;6.20;5.50;;;;;;;24.64;54.03;100877.59;4972109;28;20053;-64
2023/06/08 09:53:27;;;;;;;9.43;6.28;;;;;;;24.77;54.06;100875.84;4971406;28;20027;-64
2023/06/08 09:55:53;;;;;;;6.63;5.38;;;;;;;24.94;54.48;100881.72;4967910;28;20049;-63
2023/06/08 09:58:24;;;;;;;8.65;6.60;;;;;;;24.95;53.73;100862.28;4966772;28;20026;-63
2023/06/08 10:00:55;;;;;;;6.53;5.93;;;;;;;25.15;53.30;100860.09;4966473;28;20030;-63
2023/06/08 10:03:27;;;;;;;8.82;5.97;;;;;;;25.05;53.28;100858.09;4967793;28;20594;-64
2023/06/08 10:05:52;;;;;;;6.65;5.18;;;;;;;25.20;53.09;100853.56;4976312;28;20038;-64
2023/06/08 10:08:22;;;;;;;8.02;5.68;;;;;;;25.18;52.25;100846.66;4975777;28;20030;-63
2023/06/08 10:10:48;;;;;;;5.72;5.07;;;;;;;25.42;51.80;100845.03;4974124;28;20062;-63
2023/06/08 10:13:15;;;;;;;6.07;4.85;;;;;;;25.59;50.62;100823.53;4977816;28;20117;-63
2023/06/08 10:15:42;;;;;;;6.20;5.35;;;;;;;25.91;50.68;100805.38;4976332;28;20041;-63
2023/06/08 10:18:08;;;;;;;7.13;5.70;;;;;;;26.15;50.99;100820.38;4976941;28;20045;-63
2023/06/08 10:20:34;;;;;;;6.25;5.65;;;;;;;26.35;49.66;100789.81;4984712;28;20121;-63
2023/06/08 10:23:02;;;;;;;6.47;5.15;;;;;;;26.56;49.30;100795.34;4971307;28;20049;-64
2023/06/08 10:25:30;;;;;;;7.93;6.18;;;;;;;26.72;48.41;100788.75;4989770;28;20049;-63
2023/06/08 10:28:03;;;;;;;7.05;5.45;;;;;;;26.45;48.80;100793.44;4973874;28;20788;-63
2023/06/08 10:30:39;;;;;;;6.82;5.13;;;;;;;26.49;49.10;100797.59;4976594;28;20112;-63
2023/06/08 10:33:20;;;;;;;7.00;5.10;;;;;;;26.72;48.69;100779.94;4977443;28;20043;-64
2023/06/08 10:36:06;;;;;;;6.50;5.07;;;;;;;26.98;48.31;100778.88;4971573;28;20145;-64
2023/06/08 10:38:37;;;;;;;7.35;5.43;;;;;;;26.72;47.49;100756.94;4976591;28;20057;-64
2023/06/08 10:41:04;;;;;;;7.97;5.10;;;;;;;26.46;48.89;100781.91;4974594;28;20039;-64
2023/06/08 10:43:30;;;;;;;7.80;5.50;;;;;;;26.24;49.60;100789.75;4971358;28;20038;-63
2023/06/08 10:45:57;;;;;;;6.15;5.55;;;;;;;25.95;50.96;100812.13;4974526;28;20072;-64
2023/06/08 10:48:23;;;;;;;7.25;5.80;;;;;;;25.99;49.14;100797.72;4971130;28;20042;-64
2023/06/08 10:50:50;;;;;;;7.15;5.03;;;;;;;26.12;49.05;100785.34;5004303;28;20047;-64
2023/06/08 10:53:39;;;;;;;6.53;5.50;;;;;;;26.54;49.57;100784.81;4974381;28;20030;-64
2023/06/08 10:56:05;;;;;;;5.93;5.32;;;;;;;26.98;47.63;100757.66;4975438;28;20042;-64
2023/06/08 10:58:49;;;;;;;5.95;5.13;;;;;;;27.00;46.38;100733.66;4974647;28;20108;-64
2023/06/08 11:01:17;;;;;;;;;;;;;;;26.78;48.11;100760.09;4973574;28;20826;-64
2023/06/08 11:03:46;;;;;;;6.50;5.00;;;;;;;26.90;46.82;100732.66;4977108;28;20263;-64
2023/06/08 11:06:13;;;;;;;8.60;5.68;;;;;;;27.07;45.85;100719.81;4975378;28;20038;-64
2023/06/08 11:08:39;;;;;;;7.57;5.35;;;;;;;27.29;45.41;100718.97;4980352;28;20034;-64
2023/06/08 11:11:04;;;;;;;6.63;5.55;;;;;;;27.43;45.47;100720.53;4978967;28;20054;-64
2023/06/08 11:13:30;;;;;;;6.85;5.10;;;;;;;27.18;45.72;100732.22;4973615;28;20046;-64
2023/06/08 11:15:56;;;;;;;6.13;5.53;;;;;;;26.99;46.96;100735.44;4974014;28;20033;-64